Latest Weather Observations for McArthur River Mine

IDD60801

Issued at 7:35 am CST Tuesday 29 July 2014 (issued every 30 minutes, with the page automatically refreshed every 10 minutes)

About weather observations | Map of weather stations | Latest weather observations for NT | Other Formats
Station Details ID: 014704 Name: MCARTHUR RIVER MINE AIRPORT Lat: -16.44 Lon: 136.08 Height: 40.0 m
Data from the previous 72 hours. | See also: Recent months at McArthur River Mine
Date/Time
CST
Temp
°C
App
Temp
°C
Dew
Point
Rel
Hum
%
Delta-T
°C
Wind Press
QNH
hPa
Press
MSL
hPa
Rain
since 9 am
mm
Dir
 
Spd
km/h
Gust
km/h
Spd
kts
Gust
kts
29/07:30am 17.6 18.1 17.4 99 0.1 SW 11 15 6 8 1018.0 - 0.0
29/07:00am 15.5 16.2 15.5 100 0.0 WSW 6 9 3 5 1017.9 - 0.0
29/06:33am 15.8 17.3 15.8 100 0.0 WSW 2 7 1 4 1017.8 - 0.0
29/06:30am 15.8 17.6 15.5 98 0.2 CALM 0 6 0 3 1017.8 - 0.0
29/06:14am 16.4 18.6 16.4 100 0.0 CALM 0 4 0 2 1017.7 - 0.0
29/06:00am 16.4 17.4 16.4 100 0.0 SW 6 7 3 4 1017.5 1017.5 0.0
29/05:30am 16.6 18.3 16.1 97 0.3 WSW 2 7 1 4 1017.5 - 0.0
29/05:00am 17.0 18.6 17.0 100 0.0 WSW 4 6 2 3 1017.3 - 0.0
29/04:30am 16.9 18.1 16.9 100 0.0 W 6 7 3 4 1017.2 - 0.0
29/04:00am 17.0 18.2 16.8 99 0.1 W 6 7 3 4 1017.3 - 0.0
29/03:30am 17.2 18.4 16.9 98 0.2 WSW 6 7 3 4 1017.3 - 0.0
29/03:00am 17.3 18.6 17.0 98 0.2 W 6 7 3 4 1017.4 1017.4 0.0
29/02:42am 17.3 18.3 16.3 94 0.6 W 6 7 3 4 1017.5 - 0.0
29/02:32am 17.5 18.6 16.5 94 0.6 W 6 7 3 4 1017.6 - 0.0
29/02:30am 17.5 18.5 16.4 93 0.7 W 6 7 3 4 1017.6 - 0.0
29/02:00am 17.9 18.8 16.2 90 1.0 W 6 7 3 4 1017.9 - 0.0
29/01:46am 18.4 20.3 16.6 89 1.1 SW 2 6 1 3 1017.9 - 0.0
29/01:30am 18.6 20.9 16.8 89 1.1 CALM 0 4 0 2 1018.0 - 0.0
29/01:12am 18.7 20.2 16.7 88 1.2 SW 4 6 2 3 1018.3 - 0.0
29/01:00am 18.7 19.8 16.5 87 1.3 WSW 6 7 3 4 1018.3 - 0.0
29/12:53am 18.8 19.7 16.2 85 1.6 SW 6 7 3 4 1018.3 - 0.0
29/12:30am 19.4 19.7 17.0 86 1.5 SW 11 13 6 7 1018.4 - 0.0
29/12:00am 19.4 21.6 16.6 84 1.7 WSW 0 0 0 0 1018.3 1018.3 0.0
 
Date/Time
CST
Temp
°C
App
Temp
°C
Dew
Point
Rel
Hum
%
Delta-T
°C
Wind Press
QNH
hPa
Press
MSL
hPa
Rain
since 9 am
mm
Dir
 
Spd
km/h
Gust
km/h
Spd
kts
Gust
kts
28/11:59pm 19.4 21.6 16.6 84 1.7 CALM 0 0 0 0 1018.3 - 0.0
28/11:30pm 20.2 22.7 17.2 83 1.8 CALM 0 0 0 0 1018.2 - 0.0
28/11:28pm 20.2 22.5 16.8 81 2.1 CALM 0 0 0 0 1018.2 - 0.0
28/11:12pm 20.4 22.9 17.2 82 2.0 CALM 0 0 0 0 1018.1 - 0.0
28/11:00pm 20.5 22.6 16.3 77 2.5 CALM 0 4 0 2 1018.1 - 0.0
28/10:30pm 21.7 23.3 16.9 74 2.9 NNE 4 6 2 3 1018.2 - 0.0
28/10:06pm 22.4 24.0 16.9 71 3.4 NNE 4 6 2 3 1018.1 - 0.0
28/10:00pm 22.6 23.8 16.9 70 3.5 NNE 6 7 3 4 1018.1 - 0.0
28/09:30pm 23.4 24.0 16.9 67 4.0 NE 9 13 5 7 1018.0 - 0.0
28/09:00pm 23.9 24.0 16.4 63 4.6 NE 11 17 6 9 1017.7 1017.7 0.0
28/08:30pm 24.2 23.9 15.4 58 5.3 NE 11 17 6 9 1017.5 - 0.0
28/08:00pm 24.8 24.1 15.4 56 5.7 NNE 13 19 7 10 1017.3 - 0.0
28/07:30pm 25.4 24.6 16.0 56 5.7 NNE 15 24 8 13 1017.0 - 0.0
28/07:00pm 25.8 25.0 16.1 55 5.9 NE 15 24 8 13 1016.5 - 0.0
28/06:30pm 26.6 25.2 15.6 50 6.7 NNE 17 26 9 14 1016.0 - 0.0
28/06:00pm 27.3 25.9 15.6 48 7.2 NE 17 22 9 12 1015.6 1015.6 0.0
28/05:30pm 28.5 27.0 16.4 48 7.5 NE 19 30 10 16 1015.1 - 0.0
28/05:00pm 29.5 27.8 16.3 45 8.2 NE 20 33 11 18 1014.6 - 0.0
28/04:30pm 30.7 27.7 14.8 38 9.7 NNE 24 30 13 16 1014.4 - 0.0
28/04:00pm 32.4 28.9 7.3 21 13.8 ESE 15 22 8 12 1014.2 - 0.0
28/03:30pm 32.7 29.5 6.8 20 14.1 E 13 22 7 12 1014.4 - 0.0
28/03:00pm 33.2 29.5 6.5 19 14.5 ESE 15 39 8 21 1014.7 1014.6 0.0
28/02:30pm 32.3 28.5 5.7 19 14.2 E 15 28 8 15 1015.1 - 0.0
28/02:00pm 32.2 28.4 5.7 19 14.1 ESE 15 28 8 15 1015.6 - 0.0
28/01:30pm 32.6 28.1 6.0 19 14.3 ESE 19 35 10 19 1015.9 - 0.0
28/01:00pm 31.9 27.6 5.4 19 14.0 ESE 17 28 9 15 1016.3 - 0.0
28/12:30pm 32.1 27.9 5.6 19 14.1 E 17 24 9 13 1017.0 - 0.0
28/12:00pm 31.9 27.3 5.4 19 14.0 ESE 19 30 10 16 1017.5 1017.5 0.0
28/11:30am 31.5 26.7 5.8 20 13.7 ESE 20 35 11 19 1018.0 - 0.0
28/11:00am 30.0 24.8 5.3 21 12.9 ESE 22 33 12 18 1018.4 - 0.0
28/10:30am 29.7 24.9 5.7 22 12.6 ESE 20 32 11 17 1018.6 - 0.0
28/10:00am 28.4 24.6 5.9 24 11.8 SE 15 22 8 12 1018.8 - 0.0
28/09:30am 26.3 23.7 6.3 28 10.4 SE 9 17 5 9 1018.9 - 0.0
28/09:00am 23.5 20.6 6.7 34 8.7 SSE 11 15 6 8 1019.0 1019.0 0.0
28/08:30am 21.2 19.2 8.5 44 6.7 S 9 13 5 7 1018.8 - 0.0
28/08:27am 21.1 19.1 8.7 45 6.5 S 9 13 5 7 1018.8 - 0.0
28/08:16am 20.1 19.3 11.6 58 4.7 SW 7 11 4 6 1018.7 - 0.0
28/08:00am 18.5 18.6 14.4 77 2.4 W 7 9 4 5 1018.6 - 0.0
28/07:30am 16.1 16.8 16.1 100 0.0 W 7 9 4 5 1018.4 - 0.0
28/07:00am 15.2 15.6 15.2 100 0.0 W 7 9 4 5 1017.9 - 0.0
28/06:30am 15.6 16.3 15.6 100 0.0 WSW 6 7 3 4 1017.6 - 0.0
28/06:00am 15.7 17.2 15.7 100 0.0 WSW 2 7 1 4 1017.4 1017.4 0.0
28/05:30am 15.9 17.9 15.9 100 0.0 CALM 0 0 0 0 1017.2 - 0.0
28/05:00am 15.7 16.3 15.7 100 0.0 WSW 7 9 4 5 1017.0 - 0.0
28/04:30am 16.1 16.8 16.1 100 0.0 W 7 7 4 4 1017.1 - 0.0
28/04:00am 16.4 17.4 16.4 100 0.0 WSW 6 9 3 5 1017.2 - 0.0
28/03:30am 15.9 16.7 15.9 100 0.0 WSW 6 9 3 5 1017.0 - 0.0
28/03:00am 16.2 17.1 16.2 100 0.0 W 6 7 3 4 1017.0 1017.0 0.0
28/02:30am 16.3 17.2 16.0 98 0.2 WSW 6 6 3 3 1017.2 - 0.0
28/02:00am 17.1 19.3 16.5 96 0.4 CALM 0 0 0 0 1017.5 - 0.0
28/01:30am 17.5 18.8 16.2 92 0.8 SSW 4 7 2 4 1017.6 - 0.0
28/01:15am 17.7 18.8 16.6 93 0.7 SSW 6 6 3 3 1017.6 - 0.0
28/01:00am 17.9 19.8 16.8 93 0.7 W 2 6 1 3 1017.7 - 0.0
28/12:57am 17.9 20.2 16.8 93 0.7 CALM 0 6 0 3 1017.7 - 0.0
28/12:30am 18.3 20.4 16.3 88 1.2 CALM 0 0 0 0 1017.9 - 0.0
28/12:00am 19.0 20.9 16.8 87 1.3 NW 2 6 1 3 1018.1 1018.1 0.0
 
Date/Time
CST
Temp
°C
App
Temp
°C
Dew
Point
Rel
Hum
%
Delta-T
°C
Wind Press
QNH
hPa
Press
MSL
hPa
Rain
since 9 am
mm
Dir
 
Spd
km/h
Gust
km/h
Spd
kts
Gust
kts
27/11:30pm 19.3 21.7 17.1 87 1.3 CALM 0 0 0 0 1018.1 - 0.0
27/11:00pm 20.0 22.2 16.4 80 2.2 CALM 0 0 0 0 1018.3 - 0.0
27/10:30pm 21.1 23.5 17.1 78 2.4 CALM 0 0 0 0 1018.2 - 0.0
27/10:00pm 21.8 24.3 17.2 75 2.8 CALM 0 4 0 2 1018.2 - 0.0
27/09:30pm 23.1 24.3 17.3 70 3.6 N 7 9 4 5 1018.2 - 0.0
27/09:00pm 23.8 25.0 17.3 67 4.0 NNE 7 11 4 6 1018.1 1018.1 0.0
27/08:30pm 24.1 25.2 17.1 65 4.3 NNE 7 9 4 5 1017.9 - 0.0
27/08:00pm 25.0 25.8 17.2 62 4.9 N 9 13 5 7 1017.6 - 0.0
27/07:30pm 25.8 26.1 16.9 58 5.5 N 11 17 6 9 1017.3 - 0.0
27/07:00pm 27.2 27.1 15.9 50 6.9 NNE 11 19 6 10 1016.8 - 0.0
27/06:30pm 27.9 27.3 14.5 44 8.1 NE 11 17 6 9 1016.4 - 0.0
27/06:00pm 28.6 27.4 14.1 41 8.7 NE 13 17 7 9 1016.0 1016.0 0.0
27/05:30pm 29.4 28.1 13.6 38 9.4 ENE 13 22 7 12 1015.7 - 0.0
27/05:00pm 29.9 28.1 13.2 36 9.9 ENE 15 20 8 11 1015.5 - 0.0
27/04:30pm 31.0 29.1 11.9 31 11.2 ESE 13 20 7 11 1015.4 - 0.0
27/04:00pm 31.3 28.8 11.1 29 11.7 E 15 24 8 13 1015.2 - 0.0
27/03:30pm 31.6 29.1 10.9 28 12.0 ESE 15 26 8 14 1015.3 - 0.0
27/03:00pm 32.3 29.6 10.4 26 12.6 E 15 24 8 13 1015.4 1015.4 0.0
27/02:30pm 32.0 28.3 9.5 25 12.8 E 19 30 10 16 1015.7 - 0.0
27/02:00pm 32.6 28.7 8.8 23 13.4 ESE 19 28 10 15 1016.4 - 0.0
27/01:30pm 32.3 28.7 9.8 25 12.8 ESE 19 32 10 17 1016.9 - 0.0
27/01:00pm 32.4 28.5 8.6 23 13.3 ESE 19 32 10 17 1017.5 - 0.0
27/12:30pm 31.4 27.2 8.4 24 12.8 SE 20 32 11 17 1018.1 - 0.0
27/12:00pm 30.8 26.7 8.5 25 12.3 SE 20 28 11 15 1018.6 1018.6 0.0
27/11:30am 30.1 26.0 8.5 26 11.9 SE 20 33 11 18 1019.1 - 0.0
27/11:00am 29.9 25.6 7.7 25 12.1 E 20 33 11 18 1019.7 - 0.0
27/10:30am 29.1 24.0 7.6 26 11.6 ESE 24 35 13 19 1019.9 - 0.0
27/10:00am 27.7 23.8 7.0 27 11.0 SE 17 28 9 15 1019.8 - 0.0
27/09:30am 26.1 21.9 5.7 27 10.5 ESE 17 28 9 15 1019.9 - 0.0
27/09:00am 23.4 21.9 9.0 40 7.7 SSE 7 11 4 6 1019.9 1019.9 0.0
27/08:30am 21.1 20.2 12.5 58 4.9 WSW 9 11 5 6 1019.7 - 0.0
27/08:00am 18.5 19.2 16.1 86 1.4 W 7 9 4 5 1019.5 - 0.0
27/07:30am 16.2 17.1 16.2 100 0.0 W 6 7 3 4 1019.2 - 0.0
27/07:00am 15.2 15.8 15.2 100 0.0 WNW 6 7 3 4 1018.9 - 0.0
27/06:30am 15.4 16.0 15.4 100 0.0 SW 6 7 3 4 1018.6 - 0.0
27/06:00am 15.7 16.4 15.7 100 0.0 W 6 7 3 4 1018.5 1018.5 0.0
27/05:30am 15.8 16.6 15.8 100 0.0 W 6 7 3 4 1018.2 - 0.0
27/05:00am 16.1 18.1 16.1 100 0.0 CALM 0 0 0 0 1017.9 - 0.0
27/04:30am 16.2 17.5 16.2 100 0.0 WSW 4 7 2 4 1018.0 - 0.0
27/04:00am 16.2 18.3 16.2 100 0.0 CALM 0 0 0 0 1018.1 - 0.0
27/03:30am 16.3 18.4 16.3 100 0.0 CALM 0 0 0 0 1018.3 - 0.0
27/03:00am 16.8 17.8 16.3 97 0.3 WSW 6 6 3 3 1018.4 1018.4 0.0
27/02:30am 17.1 18.0 16.1 94 0.6 SW 6 7 3 4 1018.6 - 0.0
27/02:00am 17.1 18.7 16.0 93 0.6 SW 2 11 1 6 1018.9 - 0.0
27/01:30am 17.7 18.6 16.0 90 1.0 WSW 6 7 3 4 1018.8 - 0.0
27/01:00am 18.5 19.3 15.9 85 1.5 SW 6 7 3 4 1019.0 - 0.0
27/12:30am 19.3 20.2 16.2 82 1.9 SW 6 7 3 4 1019.1 - 0.0
27/12:00am 19.5 20.6 16.5 83 1.8 WSW 6 7 3 4 1019.3 1019.3 0.0
 
Date/Time
CST
Temp
°C
App
Temp
°C
Dew
Point
Rel
Hum
%
Delta-T
°C
Wind Press
QNH
hPa
Press
MSL
hPa
Rain
since 9 am
mm
Dir
 
Spd
km/h
Gust
km/h
Spd
kts
Gust
kts
26/11:30pm 20.1 20.9 15.9 77 2.5 W 6 7 3 4 1019.5 - 0.0
26/11:00pm 22.3 22.9 16.8 71 3.4 NE 9 11 5 6 1019.5 - 0.0
26/10:59pm 22.3 22.8 16.6 70 3.5 NE 9 11 5 6 1019.5 - 0.0
26/10:48pm 22.5 23.1 16.8 70 3.5 ENE 9 13 5 7 1019.5 - 0.0
26/10:30pm 22.8 23.3 16.6 68 3.8 NE 9 13 5 7 1019.5 - 0.0
26/10:00pm 23.3 23.6 16.1 64 4.4 NE 9 13 5 7 1019.7 - 0.0
26/09:30pm 24.0 23.7 15.5 59 5.1 NE 11 17 6 9 1019.9 - 0.0
26/09:00pm 24.5 24.2 15.4 57 5.5 NNE 11 17 6 9 1019.9 1019.9 0.0
26/08:30pm 23.9 24.2 15.9 61 4.9 NNE 9 11 5 6 1019.8 - 0.0
26/08:00pm 24.7 25.1 16.2 59 5.2 NNE 9 15 5 8 1019.5 - 0.0
26/07:30pm 25.3 24.9 16.2 57 5.6 NNE 13 19 7 10 1019.0 - 0.0
26/07:00pm 25.8 25.9 16.4 56 5.8 N 11 17 6 9 1018.6 - 0.0
26/06:30pm 26.3 27.4 17.1 57 5.7 N 7 11 4 6 1018.0 - 0.0
26/06:00pm 27.2 27.8 16.8 53 6.5 N 9 15 5 8 1017.6 1017.6 0.0
26/05:30pm 28.2 27.8 16.1 47 7.5 NNE 13 19 7 10 1017.4 - 0.0
26/05:00pm 28.7 27.1 15.9 45 7.9 NE 19 30 10 16 1017.1 - 0.0
26/04:30pm 29.7 28.4 15.8 43 8.6 NE 17 26 9 14 1016.8 - 0.0
26/04:00pm 30.0 28.6 13.3 36 10.0 E 13 19 7 10 1016.7 - 0.0
26/03:30pm 30.1 28.5 13.8 37 9.8 ESE 15 20 8 11 1016.5 - 0.0
26/03:00pm 30.3 29.1 14.0 37 9.8 ESE 13 20 7 11 1016.5 1016.5 0.0
26/02:30pm 30.4 28.9 13.2 35 10.3 ESE 13 17 7 9 1016.6 - 0.0
26/02:00pm 31.6 30.5 14.3 35 10.5 E 13 24 7 13 1016.8 - 0.0
26/01:30pm 30.8 29.0 14.4 36 10.0 ENE 17 24 9 13 1017.3 - 0.0
26/01:00pm 30.0 28.7 13.7 37 9.8 E 13 20 7 11 1017.6 - 0.0
26/12:30pm 30.4 28.6 14.5 38 9.7 E 17 32 9 17 1018.1 - 0.0
26/12:00pm 30.7 28.6 13.5 35 10.3 E 17 30 9 16 1018.6 1018.6 0.0
26/11:30am 30.0 27.9 13.7 37 9.8 E 17 30 9 16 1019.1 - 0.0
26/11:00am 29.4 27.4 14.0 39 9.3 E 17 28 9 15 1019.5 - 0.0
26/10:30am 28.4 27.0 13.5 40 8.9 ESE 13 28 7 15 1020.1 - 0.0
26/10:00am 27.4 26.6 14.1 44 8.0 ESE 11 17 6 9 1020.1 - 0.0
26/09:30am 25.9 25.9 15.3 52 6.4 ESE 9 13 5 7 1020.0 - 0.0
26/09:00am 22.7 24.0 17.6 73 3.2 SSE 7 11 4 6 1020.0 1020.0 0.0
26/08:30am 19.6 22.2 18.4 93 0.7 SW 2 6 1 3 1019.8 - 0.0
26/08:00am 17.6 20.2 17.6 100 0.0 CALM 0 0 0 0 1019.8 - 0.0

Other Formats:

Comma delimited format used in spreadsheet applications
http://www.bom.gov.au/fwo/IDD60801/IDD60801.94239.axf

JavaScript Object Notation format (JSON) in row-major order
http://www.bom.gov.au/fwo/IDD60801/IDD60801.94239.json